Time;durP1;ratioP1;P1;durP2;ratioP2;P2;SDS_P1;SDS_P2;PMS_P1;PMS_P2;Temp;Humidity;BMP_temperature;BMP_pressure;BME280_temperature;BME280_humidity;BME280_pressure;Samples;Min_cycle;Max_cycle;Signal;HPM_P1;HPM_P2
2023/10/10 07:01:52;;;;;;;2.30;1.27;;;14.30;99.90;16.90;101580.00;;;;5989795;22;4238297;-71
2023/10/10 07:04:19;;;;;;;0.37;0.37;;;14.30;99.90;16.90;101585.00;;;;6160496;23;20215;-71
2023/10/10 07:07:05;;;;;;;0.40;0.40;;;14.30;99.90;17.70;101583.00;;;;6160556;23;20146;-69
2023/10/10 07:09:42;;;;;;;1.33;1.33;;;14.50;99.90;17.80;101591.00;;;;6162055;23;20150;-69
2023/10/10 07:12:11;;;;;;;0.47;0.47;;;14.70;99.90;17.70;101591.00;;;;6136481;23;20611;-71
2023/10/10 07:14:47;;;;;;;2.33;2.20;;;14.80;99.90;17.50;101591.00;;;;6161474;23;20215;-69
2023/10/10 07:17:16;;;;;;;1.13;1.03;;;14.80;99.90;17.40;101595.00;;;;6161237;23;20150;-69
2023/10/10 07:22:47;;;;;;;0.50;0.50;;;14.70;99.90;17.60;101592.00;;;;6164458;23;20203;-71
2023/10/10 07:25:31;;;;;;;2.13;2.03;;;14.70;99.90;17.10;101596.00;;;;6159060;23;20168;-69
2023/10/10 07:28:00;;;;;;;0.50;0.50;;;14.70;99.90;17.30;101592.00;;;;6186684;23;20142;-68
2023/10/10 07:30:40;;;;;;;4.73;1.57;;;14.80;99.90;17.00;101584.00;;;;6135630;23;20223;-68
2023/10/10 07:33:22;;;;;;;1.67;0.90;;;14.70;99.90;17.60;101589.00;;;;6138217;23;20187;-68
2023/10/10 07:35:56;;;;;;;1.23;0.70;;;14.80;99.90;16.90;101586.00;;;;6162132;23;20149;-69
2023/10/10 07:38:28;;;;;;;10.23;3.33;;;14.70;99.90;16.80;101561.00;;;;6161282;23;20228;-68
2023/10/10 07:41:52;;;;;;;0.40;0.40;;;14.70;99.90;17.40;101593.00;;;;6161332;23;20183;-68
2023/10/10 07:44:32;;;;;;;5.40;2.67;;;15.00;99.90;17.70;101590.00;;;;6186641;23;20143;-68
2023/10/10 07:50:47;;;;;;;2.23;2.03;;;15.30;99.90;18.40;101603.00;;;;6161510;23;20141;-68
2023/10/10 07:53:40;;;;;;;3.07;2.83;;;15.60;99.90;18.30;101617.00;;;;6162133;23;20175;-69
2023/10/10 07:56:30;;;;;;;1.07;0.97;;;15.80;99.90;18.60;101575.00;;;;6186811;23;20158;-71
2023/10/10 07:59:24;;;;;;;7.47;2.10;;;15.80;99.90;18.90;101612.00;;;;6136723;23;20168;-71
2023/10/10 08:01:54;;;;;;;0.73;0.73;;;16.00;99.90;18.80;101612.00;;;;6160331;23;20239;-70
2023/10/10 08:04:42;;;;;;;0.90;0.90;;;16.10;99.90;19.10;101623.00;;;;6161089;23;20223;-70
2023/10/10 08:07:09;;;;;;;0.20;0.20;;;16.30;99.90;19.50;101626.00;;;;6160679;23;20199;-70
2023/10/10 08:09:42;;;;;;;0.40;0.40;;;16.40;99.90;19.40;101629.00;;;;6186222;23;20157;-70
2023/10/10 08:12:29;;;;;;;0.20;0.20;;;16.70;99.90;19.90;101628.00;;;;6160600;23;20173;-69
2023/10/10 08:15:13;;;;;;;0.70;0.70;;;16.90;99.90;19.30;101632.00;;;;6135093;23;20173;-68
2023/10/10 08:17:58;;;;;;;0.20;0.20;;;16.80;99.90;20.10;101646.00;;;;6162903;23;20595;-68
2023/10/10 08:23:11;;;;;;;2.13;2.03;;;16.80;99.90;20.20;101644.00;;;;6186700;23;20151;-68
2023/10/10 08:25:39;;;;;;;0.73;0.33;;;16.90;99.90;21.00;101664.00;;;;6186733;23;20150;-68
2023/10/10 08:28:05;;;;;;;0.30;0.30;;;17.30;99.90;20.50;101653.00;;;;6186908;23;20146;-68
2023/10/10 08:30:35;;;;;;;1.40;1.30;;;17.30;99.90;20.80;101648.00;;;;6159514;23;20181;-68
2023/10/10 08:33:06;;;;;;;0.40;0.40;;;17.40;99.90;20.80;101659.00;;;;6160339;23;20171;-68
2023/10/10 08:35:38;;;;;;;1.27;1.25;;;17.70;99.90;21.40;101660.00;;;;6135675;23;20214;-68
2023/10/10 08:38:07;;;;;;;1.27;1.27;;;17.90;99.90;22.10;101669.00;;;;6160896;23;20640;-68
2023/10/10 08:40:37;;;;;;;0.30;0.30;;;18.30;99.90;22.50;101676.00;;;;6135400;23;20155;-68
2023/10/10 08:43:03;;;;;;;0.60;0.60;;;18.60;99.90;22.00;101667.00;;;;6160415;23;20151;-68
2023/10/10 08:45:39;;;;;;;0.60;0.60;;;18.70;99.90;22.00;101661.00;;;;6160069;23;20204;-68
2023/10/10 08:48:12;;;;;;;0.28;0.28;;;18.60;99.90;22.20;101669.00;;;;6162267;23;20188;-68
2023/10/10 08:50:45;;;;;;;0.10;0.10;;;18.70;99.90;22.30;101668.00;;;;6136879;23;20186;-68
2023/10/10 08:53:14;;;;;;;3.15;2.90;;;18.80;99.90;21.10;101664.00;;;;6186297;23;20171;-68
2023/10/10 08:55:41;;;;;;;0.85;0.73;;;18.60;99.90;21.30;101664.00;;;;6160006;23;20143;-68
2023/10/10 08:58:09;;;;;;;0.82;0.82;;;18.30;99.90;21.90;101669.00;;;;6160024;23;20143;-68
2023/10/10 09:00:37;;;;;;;0.28;0.28;;;18.40;99.90;22.20;101677.00;;;;6159538;23;20649;-68
2023/10/10 09:03:08;;;;;;;0.43;0.43;;;18.50;99.90;21.20;101659.00;;;;6160682;23;20139;-68
2023/10/10 09:05:37;;;;;;;0.10;0.10;;;18.40;99.90;21.50;101671.00;;;;6159704;23;20163;-68
2023/10/10 09:08:14;;;;;;;0.10;0.10;;;18.30;99.90;21.90;101677.00;;;;6135513;23;20159;-68
2023/10/10 09:10:43;;;;;;;2.08;1.95;;;18.70;99.90;22.00;101679.00;;;;6186467;23;20139;-68
2023/10/10 09:13:12;;;;;;;0.50;0.50;;;19.00;99.90;22.90;101681.00;;;;6159778;23;20171;-68
2023/10/10 09:15:54;;;;;;;1.48;1.38;;;19.60;99.90;22.40;101662.00;;;;6185703;23;20214;-68
2023/10/10 09:18:42;;;;;;;0.10;0.10;;;19.50;99.90;23.70;101668.00;;;;6160447;23;20150;-68
2023/10/10 09:21:18;;;;;;;1.20;1.13;;;20.20;99.90;22.80;101675.00;;;;6186131;23;20151;-67
2023/10/10 09:24:25;;;;;;;1.20;0.65;;;20.20;99.90;23.40;101681.00;;;;6160852;23;20197;-69
2023/10/10 09:26:44;;;;;;;1.00;1.00;;;20.40;99.90;23.80;101687.00;;;;6162773;23;20630;-69
2023/10/10 09:29:56;;;;;;;1.15;0.93;;;20.60;99.90;24.30;101690.00;;;;6159778;23;20154;-68
2023/10/10 09:32:36;;;;;;;0.30;0.30;;;20.80;99.90;24.30;101696.00;;;;6185220;23;20174;-69
2023/10/10 09:35:28;;;;;;;0.57;0.57;;;20.90;99.90;23.10;101653.00;;;;6159854;23;20140;-69
2023/10/10 09:37:57;;;;;;;0.70;0.70;;;20.50;99.90;24.00;101674.00;;;;6185957;23;20143;-69
2023/10/10 09:41:10;;;;;;;0.10;0.10;;;20.60;99.90;24.60;101675.00;;;;6160018;23;20139;-69
2023/10/10 09:52:58;;;;;;;0.28;0.28;;;22.20;99.90;26.20;101734.00;;;;6195975;23;20178;-69
2023/10/10 09:58:25;;;;;;;0.10;0.10;;;23.20;99.90;26.10;101772.00;;;;6159240;23;20233;-68
2023/10/10 10:01:24;;;;;;;0.20;0.20;;;22.70;99.90;25.80;101751.00;;;;6160041;23;20167;-68
2023/10/10 10:04:36;;;;;;;0.10;0.10;;;22.50;99.90;27.00;101756.00;;;;6185790;23;20162;-68
2023/10/10 10:07:36;;;;;;;0.95;0.95;;;22.60;99.90;25.00;101763.00;;;;6136669;23;20165;-68
2023/10/10 10:10:33;;;;;;;0.65;0.65;;;22.30;99.90;26.50;101749.00;;;;6134845;23;20241;-69
2023/10/10 10:14:13;;;;;;;2.63;1.65;;;22.40;99.90;27.10;101782.00;;;;6160729;23;20182;-69
2023/10/10 10:16:54;;;;;;;0.15;0.15;;;23.00;99.90;27.10;101780.00;;;;6132813;23;20173;-68
2023/10/10 10:19:28;;;;;;;0.10;0.10;;;23.10;99.90;27.90;101782.00;;;;6158576;23;20258;-69
2023/10/10 10:33:32;;;;;;;0.10;0.10;;;22.80;99.90;25.80;101720.00;;;;5101968;27;1399785;-67
2023/10/10 10:36:06;;;;;;;1.38;1.27;;;22.80;99.90;26.90;101768.00;;;;5119254;28;20853;-67
2023/10/10 10:42:11;;;;;;;2.08;1.23;;;23.90;99.90;25.90;101791.00;;;;5097752;28;20195;-68
2023/10/10 10:47:38;;;;;;;0.20;0.20;;;23.20;99.90;27.00;101777.00;;;;5117506;28;20608;-67
2023/10/10 10:50:58;;;;;;;0.52;0.52;;;23.20;99.90;29.60;101729.00;;;;5113969;28;20267;-70
2023/10/10 10:53:58;;;;;;;3.70;2.58;;;24.40;99.90;29.90;101724.00;;;;5116541;28;20331;-71
2023/10/10 10:57:03;;;;;;;1.13;1.13;;;25.40;99.90;29.20;101717.00;;;;5110621;28;20543;-70
2023/10/10 10:59:57;;;;;;;0.88;0.88;;;25.60;99.90;28.50;101744.00;;;;5114717;28;20224;-70
2023/10/10 11:03:13;;;;;;;0.80;0.80;;;25.20;99.90;26.90;101783.00;;;;5116383;28;20549;-68
2023/10/10 11:05:57;;;;;;;0.10;0.10;;;24.20;99.90;27.70;101772.00;;;;5101812;28;20191;-70
2023/10/10 11:11:36;;;;;;;0.73;0.73;;;24.50;99.90;29.20;101753.00;;;;5109413;28;20180;-70
2023/10/10 11:14:34;;;;;;;4.78;3.22;;;24.70;99.90;25.90;101796.00;;;;5110114;28;20233;-68
2023/10/10 11:17:03;;;;;;;0.50;0.50;;;24.10;99.90;26.90;101776.00;;;;5107911;28;20226;-68
2023/10/10 11:19:57;;;;;;;0.52;0.50;;;23.70;99.90;26.20;101782.00;;;;5113839;28;20633;-68
2023/10/10 11:23:11;;;;;;;0.30;0.30;;;23.40;99.90;27.50;101766.00;;;;5115232;28;20195;-68
2023/10/10 11:25:58;;;;;;;0.30;0.30;;;23.90;99.90;26.50;101773.00;;;;5121157;28;20677;-68
2023/10/10 11:28:37;;;;;;;0.10;0.10;;;23.50;99.90;27.40;101764.00;;;;5117465;28;20179;-68
2023/10/10 11:31:08;;;;;;;2.28;2.08;;;23.40;99.90;27.30;101767.00;;;;5126233;28;20176;-68
2023/10/10 11:34:10;;;;;;;0.10;0.10;;;23.80;99.90;27.90;101758.00;;;;5094816;28;20218;-68
2023/10/10 11:37:20;;;;;;;1.33;1.33;;;23.90;99.90;27.20;101731.00;;;;5121644;28;20266;-68
2023/10/10 11:39:48;;;;;;;0.13;0.13;;;23.80;99.90;28.70;101731.00;;;;5111271;28;20271;-69
2023/10/10 11:43:12;;;;;;;0.98;0.98;;;24.10;99.90;29.40;101700.00;;;;5110558;28;20653;-71
2023/10/10 11:45:40;;;;;;;0.10;0.10;;;25.00;99.90;30.40;101692.00;;;;5106794;28;20177;-69
2023/10/10 11:48:12;;;;;;;0.10;0.10;;;25.60;99.90;31.00;101671.00;;;;5098856;28;20268;-69
2023/10/10 11:50:49;;;;;;;0.57;0.57;;;26.50;99.90;28.70;101693.00;;;;5102203;28;20620;-68
2023/10/10 11:53:36;;;;;;;0.10;0.10;;;25.20;99.90;30.00;101680.00;;;;5100413;28;20239;-69
2023/10/10 11:56:34;;;;;;;0.13;0.13;;;25.80;99.90;29.60;101683.00;;;;5100338;28;20207;-69
2023/10/10 11:59:46;;;;;;;0.10;0.10;;;25.60;99.90;31.30;101647.00;;;;5093288;28;20721;-69
2023/10/10 12:02:29;;;;;;;0.50;0.47;;;26.70;99.90;30.80;101659.00;;;;5108864;28;20176;-69
2023/10/10 12:04:56;;;;;;;0.45;0.45;;;26.60;99.90;30.30;101659.00;;;;5108261;28;20603;-69
2023/10/10 12:07:40;;;;;;;0.10;0.10;;;26.60;99.90;29.90;101665.00;;;;5111931;28;20653;-70
2023/10/10 12:10:07;;;;;;;0.30;0.30;;;26.70;99.90;31.10;101649.00;;;;5103551;28;20184;-69
2023/10/10 12:12:33;;;;;;;0.52;0.52;;;26.70;99.90;29.70;101673.00;;;;5101802;28;20244;-69
2023/10/10 12:15:00;;;;;;;0.85;0.77;;;26.60;99.90;28.70;101687.00;;;;5099118;28;20231;-69
2023/10/10 12:17:38;;;;;;;0.20;0.20;;;25.60;99.90;29.60;101645.00;;;;5107315;28;20196;-70
2023/10/10 12:20:15;;;;;;;1.45;0.70;;;25.60;99.90;30.40;101661.00;;;;5094186;28;20195;-69
2023/10/10 12:22:42;;;;;;;0.10;0.10;;;26.30;99.90;31.30;101653.00;;;;5091504;28;20653;-69
2023/10/10 12:25:20;;;;;;;0.10;0.10;;;26.80;99.90;31.00;101648.00;;;;5114962;28;20169;-69
2023/10/10 12:27:49;;;;;;;0.10;0.10;;;27.20;99.90;32.10;101637.00;;;;5100752;28;20177;-70
2023/10/10 12:30:25;;;;;;;0.10;0.10;;;27.60;99.90;32.50;101637.00;;;;5105668;28;20188;-69
2023/10/10 12:33:16;;;;;;;0.95;0.80;;;28.10;99.90;30.60;101675.00;;;;5107888;28;20208;-69
2023/10/10 12:35:56;;;;;;;1.75;1.50;;;28.40;99.90;28.10;101703.00;;;;5085296;28;20600;-69
2023/10/10 12:38:26;;;;;;;0.70;0.50;;;25.70;99.90;28.60;101705.00;;;;5104416;28;20646;-69
2023/10/10 12:41:01;;;;;;;1.30;1.30;;;25.20;99.90;29.30;101694.00;;;;5100152;28;20177;-69
2023/10/10 12:43:30;;;;;;;0.25;0.25;;;25.60;99.90;29.10;101704.00;;;;5102268;28;20199;-69
2023/10/10 12:46:16;;;;;;;0.77;0.77;;;25.80;99.90;29.80;101685.00;;;;5098087;28;20184;-69
2023/10/10 12:48:46;;;;;;;0.38;0.38;;;26.00;99.90;29.40;101688.00;;;;5093570;28;20181;-69
2023/10/10 12:51:14;;;;;;;0.10;0.10;;;25.80;99.90;29.60;101689.00;;;;5084903;28;20702;-69
2023/10/10 12:53:46;;;;;;;0.57;0.57;;;25.80;99.90;29.40;101664.00;;;;5095454;28;20237;-69
2023/10/10 12:56:16;;;;;;;0.40;0.40;;;25.80;99.90;30.20;101670.00;;;;5111314;28;20206;-69
2023/10/10 12:58:57;;;;;;;5.80;1.52;;;25.80;99.90;27.40;101706.00;;;;5102351;28;20253;-68
2023/10/10 13:01:32;;;;;;;0.25;0.25;;;24.90;99.90;28.00;101673.00;;;;5108358;28;20176;-70
2023/10/10 13:04:07;;;;;;;0.47;0.47;;;24.80;99.90;29.70;101672.00;;;;5102048;28;20171;-68
2023/10/10 13:06:35;;;;;;;0.32;0.32;;;25.30;99.90;30.00;101671.00;;;;5086926;28;20176;-70
2023/10/10 13:09:32;;;;;;;0.43;0.43;;;25.50;99.90;29.00;101686.00;;;;5105485;28;20572;-69
2023/10/10 13:12:04;;;;;;;2.90;0.90;;;25.60;99.90;27.90;101693.00;;;;5105678;27;20243;-69
2023/10/10 13:15:05;;;;;;;0.50;0.50;;;25.00;99.90;29.60;101680.00;;;;5087559;28;20191;-69
2023/10/10 13:17:50;;;;;;;0.40;0.40;;;25.10;99.90;28.70;101682.00;;;;5095063;28;20303;-69
2023/10/10 13:20:27;;;;;;;0.10;0.10;;;25.10;99.90;28.80;101671.00;;;;5097185;28;20180;-69
2023/10/10 13:22:56;;;;;;;0.47;0.47;;;25.00;99.90;28.50;101683.00;;;;5094231;28;20189;-69
2023/10/10 13:25:28;;;;;;;0.77;0.77;;;25.00;99.90;28.30;101680.00;;;;5096202;28;20260;-69
2023/10/10 13:27:54;;;;;;;0.20;0.20;;;24.70;99.90;28.60;101682.00;;;;5103852;28;20698;-69
2023/10/10 13:30:22;;;;;;;0.10;0.10;;;24.80;99.90;29.70;101668.00;;;;5104610;28;20542;-69
2023/10/10 13:33:09;;;;;;;8.00;0.47;;;25.10;99.90;29.80;101663.00;;;;5106058;28;20220;-70
2023/10/10 13:35:54;;;;;;;0.20;0.20;;;25.40;99.90;30.50;101637.00;;;;5094504;28;20605;-71
2023/10/10 13:38:49;;;;;;;0.70;0.50;;;25.80;99.90;28.60;101679.00;;;;5092847;28;20200;-71
2023/10/10 13:41:41;;;;;;;0.30;0.30;;;25.30;99.90;29.70;101657.00;;;;5092332;28;20685;-70
2023/10/10 13:44:25;;;;;;;0.20;0.20;;;25.30;99.90;29.40;101657.00;;;;5088727;28;20184;-70
2023/10/10 13:47:08;;;;;;;0.80;0.80;;;25.40;99.90;28.10;101673.00;;;;5092163;28;20798;-70
2023/10/10 13:50:25;;;;;;;0.22;0.15;;;24.90;99.90;27.70;101682.00;;;;5097878;28;20176;-71
2023/10/10 13:53:17;;;;;;;0.95;0.95;;;24.70;99.90;28.60;101675.00;;;;5103679;28;20291;-70
2023/10/10 13:56:07;;;;;;;12.32;1.17;;;24.60;99.90;29.10;101647.00;;;;5105170;28;20191;-70
2023/10/10 13:58:52;;;;;;;1.88;0.70;;;25.00;99.90;29.10;101663.00;;;;5103296;28;20172;-70
2023/10/10 14:02:02;;;;;;;0.55;0.55;;;25.20;99.90;27.40;101683.00;;;;5099049;28;20564;-70
2023/10/10 14:04:50;;;;;;;0.90;0.90;;;24.60;99.90;29.40;101651.00;;;;5095436;28;20263;-70
2023/10/10 14:07:54;;;;;;;0.10;0.10;;;24.90;99.90;28.60;101667.00;;;;5095269;28;20237;-70
2023/10/10 14:10:59;;;;;;;0.28;0.28;;;25.00;99.90;28.40;101663.00;;;;5080022;28;20199;-69
2023/10/10 14:14:02;;;;;;;0.30;0.30;;;24.80;99.90;28.80;101646.00;;;;5104524;28;20223;-69
2023/10/10 14:16:55;;;;;;;1.08;0.75;;;24.90;99.90;28.20;101651.00;;;;5094629;28;20181;-70
2023/10/10 14:19:58;;;;;;;0.25;0.25;;;24.90;99.90;28.70;101650.00;;;;5092087;28;20233;-69
2023/10/10 14:22:51;;;;;;;0.63;0.63;;;25.00;99.90;28.50;101644.00;;;;5095735;28;20183;-69
2023/10/10 14:26:13;;;;;;;0.10;0.10;;;24.90;99.90;29.80;101644.00;;;;5064355;28;20202;-70
2023/10/10 14:29:07;;;;;;;0.10;0.10;;;25.20;99.90;29.60;101657.00;;;;5097645;28;20180;-70
2023/10/10 14:32:03;;;;;;;0.40;0.40;;;25.10;99.90;28.50;101669.00;;;;5077968;28;20262;-70
2023/10/10 14:34:40;;;;;;;0.10;0.10;;;25.00;99.90;28.40;101551.00;;;;5081521;28;20176;-69
2023/10/10 14:37:31;;;;;;;2.30;2.25;;;24.90;99.90;29.40;101545.00;;;;5089162;28;20176;-69
2023/10/10 14:40:35;;;;;;;0.10;0.10;;;24.90;99.90;29.80;101545.00;;;;5074652;28;20260;-69
2023/10/10 14:43:06;;;;;;;0.17;0.17;;;25.20;99.90;30.10;101526.00;;;;5101686;28;20205;-70
2023/10/10 14:45:49;;;;;;;0.10;0.10;;;25.40;99.90;30.30;101573.00;;;;5104708;28;20249;-70
2023/10/10 14:48:20;;;;;;;0.10;0.10;;;25.50;99.90;29.90;101598.00;;;;5094660;28;20598;-70
2023/10/10 14:51:17;;;;;;;0.10;0.10;;;25.50;99.90;28.60;101612.00;;;;5095357;28;20185;-70
2023/10/10 14:54:17;;;;;;;0.10;0.10;;;25.10;99.90;28.10;101594.00;;;;5098319;28;20222;-70
2023/10/10 14:56:50;;;;;;;0.10;0.10;;;24.50;99.90;28.20;101609.00;;;;5107364;28;20685;-70
2023/10/10 14:59:46;;;;;;;0.10;0.10;;;24.30;99.90;28.80;101609.00;;;;5093235;28;20210;-70
2023/10/10 15:02:16;;;;;;;0.10;0.10;;;24.40;99.90;29.10;101591.00;;;;5095668;28;20196;-70
2023/10/10 15:04:51;;;;;;;0.13;0.13;;;24.60;99.90;28.30;101622.00;;;;5084136;28;20595;-70
2023/10/10 15:07:17;;;;;;;0.10;0.10;;;24.50;99.90;28.20;101615.00;;;;5082359;28;20191;-70
2023/10/10 15:09:51;;;;;;;0.40;0.40;;;24.20;99.90;28.20;101585.00;;;;5082722;28;20180;-70
2023/10/10 15:12:25;;;;;;;0.10;0.10;;;24.30;99.90;28.40;101603.00;;;;5099396;28;20871;-70
2023/10/10 15:15:16;;;;;;;0.10;0.10;;;24.30;99.90;27.90;101616.00;;;;5085803;28;20200;-70
2023/10/10 15:17:56;;;;;;;0.20;0.20;;;24.20;99.90;28.10;101618.00;;;;5101013;28;20180;-70
2023/10/10 15:20:48;;;;;;;1.08;0.30;;;24.30;99.90;28.40;101614.00;;;;5104052;28;20210;-72
2023/10/10 15:23:43;;;;;;;0.20;0.20;;;24.30;99.90;28.40;101578.00;;;;5087391;28;20192;-73
2023/10/10 15:26:59;;;;;;;0.13;0.13;;;24.40;99.90;27.90;101619.00;;;;5103062;28;20188;-73
2023/10/10 15:29:51;;;;;;;0.65;0.65;;;24.20;99.90;28.30;101609.00;;;;5093773;28;20225;-73
2023/10/10 15:32:46;;;;;;;0.10;0.10;;;24.20;99.90;28.00;101608.00;;;;5064414;28;20216;-73
2023/10/10 15:35:42;;;;;;;0.60;0.60;;;24.30;99.90;28.20;101600.00;;;;5104218;28;20193;-73
2023/10/10 15:38:41;;;;;;;0.10;0.10;;;24.20;99.90;27.70;101601.00;;;;5104946;28;20164;-73
2023/10/10 15:41:42;;;;;;;0.10;0.10;;;24.20;99.90;28.70;101603.00;;;;5096369;28;20302;-73
2023/10/10 15:44:50;;;;;;;0.32;0.32;;;24.50;99.90;28.20;101596.00;;;;5095520;28;20642;-73
2023/10/10 15:47:49;;;;;;;0.10;0.10;;;24.40;99.90;27.90;101592.00;;;;5102678;28;20177;-73
2023/10/10 15:51:14;;;;;;;0.28;0.13;;;24.40;99.90;27.90;101601.00;;;;5103764;28;20558;-73
2023/10/10 15:54:33;;;;;;;0.25;0.15;;;24.40;99.90;27.90;101591.00;;;;5104344;28;20184;-72
2023/10/10 15:57:06;;;;;;;0.10;0.10;;;24.30;99.90;27.60;101592.00;;;;5081498;28;20533;-73
2023/10/10 15:59:41;;;;;;;0.20;0.20;;;24.20;99.90;27.80;101590.00;;;;5085646;28;20242;-71
2023/10/10 16:02:09;;;;;;;1.60;0.65;;;24.10;99.90;27.80;101594.00;;;;5110622;28;20180;-73
2023/10/10 16:04:44;;;;;;;0.28;0.28;;;24.10;99.90;27.70;101591.00;;;;5101277;28;20214;-73
2023/10/10 16:07:11;;;;;;;0.30;0.30;;;24.00;99.90;27.30;101600.00;;;;5106056;28;20181;-71
2023/10/10 16:09:37;;;;;;;0.20;0.20;;;23.90;99.90;27.70;101583.00;;;;5088535;28;20192;-71
2023/10/10 16:12:07;;;;;;;2.42;0.38;;;23.90;99.90;27.10;101612.00;;;;5113493;28;20200;-71
2023/10/10 16:14:36;;;;;;;0.20;0.20;;;23.80;99.90;27.80;101601.00;;;;5097141;28;20223;-71
2023/10/10 16:17:22;;;;;;;0.15;0.15;;;23.80;99.90;27.10;101613.00;;;;5097742;28;20264;-72
2023/10/10 16:20:35;;;;;;;0.25;0.25;;;23.80;99.90;27.40;101607.00;;;;5103764;28;20183;-71
2023/10/10 16:23:26;;;;;;;1.05;0.95;;;23.70;99.90;26.90;101619.00;;;;5117126;27;20180;-71
2023/10/10 16:26:33;;;;;;;0.10;0.10;;;23.50;99.90;27.50;101616.00;;;;5003505;28;20192;-72
2023/10/10 16:29:39;;;;;;;0.10;0.10;;;23.60;99.90;27.10;101626.00;;;;5018355;28;20254;-71
2023/10/10 16:32:43;;;;;;;0.10;0.10;;;23.50;99.90;27.40;101612.00;;;;5102346;28;20666;-71
2023/10/10 16:35:46;;;;;;;0.32;0.32;;;23.40;99.90;27.20;101620.00;;;;5103343;28;20518;-72
2023/10/10 16:38:55;;;;;;;0.10;0.10;;;23.40;99.90;26.60;101633.00;;;;5114524;27;20632;-72
2023/10/10 16:41:59;;;;;;;0.10;0.10;;;23.20;99.90;26.70;101626.00;;;;5102434;28;20187;-73
2023/10/10 16:44:48;;;;;;;0.60;0.50;;;23.10;99.90;26.60;101617.00;;;;5105100;28;20281;-72
2023/10/10 16:47:25;;;;;;;0.10;0.10;;;23.10;99.90;26.30;101645.00;;;;5102510;28;20546;-72
2023/10/10 16:49:57;;;;;;;2.38;1.75;;;23.00;99.90;27.40;101613.00;;;;5104887;28;20180;-72
2023/10/10 16:52:25;;;;;;;0.20;0.20;;;23.10;99.90;26.70;101640.00;;;;5080962;28;20197;-72
2023/10/10 16:55:10;;;;;;;0.10;0.10;;;23.10;99.90;26.40;101648.00;;;;5097875;28;20216;-72
2023/10/10 16:57:41;;;;;;;0.10;0.10;;;22.80;99.90;26.30;101648.00;;;;5096764;28;20272;-72
2023/10/10 17:00:34;;;;;;;0.20;0.20;;;22.80;99.90;26.00;101666.00;;;;5095160;28;20180;-72
2023/10/10 17:03:56;;;;;;;0.20;0.20;;;22.70;99.90;26.50;101649.00;;;;5101674;28;20188;-71
2023/10/10 17:06:35;;;;;;;0.57;0.57;;;22.70;99.90;26.40;101652.00;;;;5102897;28;20201;-72
2023/10/10 17:09:36;;;;;;;34.28;8.65;;;22.70;99.90;26.40;101649.00;;;;5101364;28;20646;-71
2023/10/10 17:12:17;;;;;;;7.03;1.95;;;22.70;99.90;26.60;101642.00;;;;5102231;28;20187;-71
2023/10/10 17:15:01;;;;;;;0.20;0.20;;;22.70;99.90;27.00;101634.00;;;;5104950;28;20217;-71
2023/10/10 17:18:09;;;;;;;0.10;0.10;;;22.80;99.90;26.40;101639.00;;;;5089344;28;20204;-71
2023/10/10 17:21:26;;;;;;;0.10;0.10;;;22.60;99.90;26.00;101638.00;;;;5105091;28;20187;-71
2023/10/10 17:24:10;;;;;;;0.65;0.65;;;22.50;99.90;26.30;101627.00;;;;5100962;28;20180;-71
2023/10/10 17:27:14;;;;;;;0.68;0.68;;;22.40;99.90;26.10;101579.00;;;;5108773;28;20191;-71
2023/10/10 17:30:36;;;;;;;0.10;0.10;;;22.30;99.90;26.40;101602.00;;;;5099695;28;20272;-71
2023/10/10 17:33:13;;;;;;;0.20;0.20;;;22.40;99.90;26.40;101588.00;;;;5092513;28;20231;-71
2023/10/10 17:36:23;;;;;;;0.10;0.10;;;22.30;99.90;26.30;101547.00;;;;5088252;28;20202;-71
2023/10/10 17:39:48;;;;;;;0.30;0.30;;;22.30;99.90;26.20;101578.00;;;;5095906;28;20234;-71
2023/10/10 17:42:49;;;;;;;2.00;1.95;;;22.20;99.90;26.30;101569.00;;;;5104114;28;20566;-71
2023/10/10 17:45:45;;;;;;;0.20;0.20;;;22.10;99.90;26.20;101561.00;;;;5102264;28;20184;-71
2023/10/10 17:49:09;;;;;;;0.10;0.10;;;22.20;99.90;25.50;101552.00;;;;5101887;28;20173;-70
2023/10/10 17:52:14;;;;;;;0.17;0.17;;;22.00;99.90;26.00;101541.00;;;;5086370;28;20212;-71
2023/10/10 17:54:48;;;;;;;0.20;0.20;;;21.90;99.90;26.00;101537.00;;;;5099767;28;20229;-71
2023/10/10 17:57:21;;;;;;;0.38;0.38;;;21.90;99.90;25.40;101529.00;;;;5098588;28;20280;-71
2023/10/10 17:59:50;;;;;;;0.20;0.20;;;21.80;99.90;25.70;101519.00;;;;5102002;28;20233;-71
2023/10/10 18:02:34;;;;;;;0.20;0.20;;;21.70;99.90;25.50;101510.00;;;;5082644;28;20671;-71
2023/10/10 18:05:20;;;;;;;0.20;0.20;;;21.70;99.90;25.30;101482.00;;;;5100503;28;20227;-71
2023/10/10 18:08:07;;;;;;;0.65;0.65;;;21.60;99.90;25.30;101494.00;;;;5100369;28;20173;-71
2023/10/10 18:10:51;;;;;;;3.72;0.95;;;21.70;99.90;24.80;101483.00;;;;5099849;28;20267;-71
2023/10/10 18:13:17;;;;;;;1.13;1.13;;;21.50;99.90;24.90;101474.00;;;;5099699;28;20322;-71
2023/10/10 18:16:09;;;;;;;0.30;0.30;;;21.40;99.90;25.30;101481.00;;;;5091176;28;20236;-71
2023/10/10 18:21:40;;;;;;;0.20;0.20;;;21.50;99.90;25.20;101464.00;;;;5101927;28;20196;-71
2023/10/10 18:24:37;;;;;;;0.30;0.30;;;21.50;99.90;24.60;101459.00;;;;5101759;28;20206;-71
2023/10/10 18:27:38;;;;;;;0.30;0.30;;;21.40;99.90;25.50;101473.00;;;;5099910;28;20313;-71
2023/10/10 18:30:21;;;;;;;0.20;0.20;;;21.50;99.90;25.40;101474.00;;;;5099983;28;20185;-71
2023/10/10 18:33:27;;;;;;;0.47;0.47;;;21.60;99.90;25.20;101482.00;;;;5103469;28;20211;-71
2023/10/10 18:36:14;;;;;;;0.20;0.20;;;21.50;99.90;25.80;101482.00;;;;5100636;28;20183;-71
2023/10/10 18:38:50;;;;;;;0.47;0.45;;;21.60;99.90;25.10;101476.00;;;;5098458;28;20188;-71
2023/10/10 18:41:24;;;;;;;0.57;0.57;;;21.50;99.90;25.40;101479.00;;;;5101280;28;20234;-71
2023/10/10 18:44:01;;;;;;;0.20;0.20;;;21.40;99.90;25.50;101483.00;;;;5100358;28;20290;-71
2023/10/10 18:46:45;;;;;;;0.43;0.43;;;21.50;99.90;25.90;101484.00;;;;5100620;28;20210;-71
2023/10/10 18:49:46;;;;;;;0.20;0.20;;;21.70;99.90;25.00;101471.00;;;;5098977;28;20180;-71
2023/10/10 18:52:19;;;;;;;0.73;0.73;;;21.40;99.90;25.60;101480.00;;;;5113651;28;20272;-71
2023/10/10 18:54:49;;;;;;;0.20;0.20;;;21.50;99.90;25.90;101480.00;;;;5085615;28;20643;-71
2023/10/10 18:57:38;;;;;;;2.63;1.85;;;21.60;99.90;25.70;101481.00;;;;5115871;28;20220;-71
2023/10/10 19:00:34;;;;;;;0.20;0.20;;;21.60;99.90;26.40;101487.00;;;;5103025;28;20228;-71
2023/10/10 19:03:23;;;;;;;0.40;0.40;;;21.80;99.90;25.40;101478.00;;;;5110744;28;20236;-71
2023/10/10 19:05:53;;;;;;;0.20;0.20;;;21.60;99.90;25.70;101461.00;;;;5110820;28;20805;-71
2023/10/10 19:08:42;;;;;;;0.45;0.45;;;21.50;99.90;25.50;101462.00;;;;5103132;28;20180;-72
2023/10/10 19:11:13;;;;;;;0.28;0.28;;;21.40;99.90;25.20;101483.00;;;;5105793;28;20168;-72
2023/10/10 19:14:04;;;;;;;0.38;0.38;;;21.40;99.90;24.70;101479.00;;;;5097316;28;20208;-72
2023/10/10 19:16:33;;;;;;;0.20;0.20;;;21.30;99.90;24.60;101456.00;;;;5087474;28;20188;-72
2023/10/10 19:19:19;;;;;;;0.73;0.73;;;21.10;99.90;24.70;101461.00;;;;5096282;28;20181;-72
2023/10/10 19:21:53;;;;;;;0.20;0.20;;;21.10;99.90;24.80;101466.00;;;;5088628;28;20571;-72
2023/10/10 19:24:20;;;;;;;0.20;0.20;;;21.10;99.90;25.20;101472.00;;;;5108200;28;20199;-72
2023/10/10 19:26:47;;;;;;;0.20;0.20;;;21.10;99.90;24.80;101474.00;;;;5111949;28;20180;-72
2023/10/10 19:29:28;;;;;;;0.20;0.20;;;21.10;99.90;23.90;101473.00;;;;5105485;28;20192;-72
2023/10/10 19:32:13;;;;;;;0.20;0.20;;;20.80;99.90;24.90;101487.00;;;;5106980;28;20573;-72
2023/10/10 19:34:44;;;;;;;1.63;0.75;;;20.90;99.90;24.20;101515.00;;;;5100517;28;20177;-72
2023/10/10 19:37:28;;;;;;;0.20;0.20;;;20.90;99.90;25.10;101426.00;;;;5084979;28;20177;-72
2023/10/10 19:40:01;;;;;;;0.63;0.63;;;21.00;99.90;24.30;101525.00;;;;5099362;28;20172;-72
2023/10/10 19:42:29;;;;;;;0.30;0.30;;;21.00;99.90;23.80;101525.00;;;;5104080;28;20212;-72
2023/10/10 19:45:17;;;;;;;0.13;0.13;;;20.80;99.90;24.80;101523.00;;;;5102743;28;20189;-72
2023/10/10 19:48:06;;;;;;;0.20;0.20;;;21.00;99.90;25.80;101502.00;;;;5084329;28;20184;-72
2023/10/10 19:50:42;;;;;;;0.20;0.20;;;21.30;99.90;25.50;101508.00;;;;5089846;28;20254;-72